Aviation Digital Data Service (ADDS)

Output produced by METARs form (2209 UTC 06 July 2015)
found at http://aviationweather.gov/adds/metars/
 
KLBT 061729Z 0618/0718 19009KT P6SM VCTS SCT025 SCT050CB 
     FM070200 VRB02KT P6SM FEW030